Latest Weather Observations for Kalumburu

IDD60801

Issued at 6:01 pm CST Wednesday 24 August 2016 (issued every 30 minutes, with the page automatically refreshed every 10 minutes)

About weather observations | Map of weather stations | Latest weather observations for NT | Other Formats
Station Details ID: 001019 Name: KALUMBURU Lat: -14.30 Lon: 126.65 Height: 23.0 m
Data from the previous 72 hours. | See also: Recent months at Kalumburu
Date/Time
CST
Temp
°C
App
Temp
°C
Dew
Point
°C
Rel
Hum
%
Delta-T
°C
Wind Press
QNH
hPa
Press
MSL
hPa
Rain since
9am
mm
Dir  Spd
km/h
Gust
km/h
Spd
kts
Gust
kts
24/06:00pm 32.2 28.8 5.7 19 14.2 WNW 13 24 7 13 1008.2 1008.1 0.0
24/05:30pm 32.2 28.7 7.1 21 13.7 N 15 28 8 15 1007.9 1007.8 0.0
24/05:00pm 32.9 28.4 6.2 19 14.4 NNW 19 28 10 15 1007.7 1007.6 0.0
24/04:30pm 32.9 27.4 3.8 16 15.1 NNW 22 32 12 17 1007.6 1007.5 0.0
24/04:00pm 34.0 29.1 1.7 13 16.3 NW 17 26 9 14 1007.5 1007.4 0.0
24/03:30pm 34.2 30.0 1.9 13 16.4 SSW 13 19 7 10 1007.9 1007.8 0.0
24/03:00pm 33.6 30.0 0.3 12 16.4 SSE 9 17 5 9 1008.2 1008.1 0.0
24/02:30pm 33.4 30.1 0.1 12 16.3 SW 7 13 4 7 1008.6 1008.5 0.0
24/02:00pm 32.8 29.6 0.8 13 15.8 NNE 7 13 4 7 1009.1 1009.0 0.0
24/01:30pm 32.6 29.2 1.7 14 15.5 SSW 9 15 5 8 1009.7 1009.6 0.0
24/01:00pm 31.9 28.4 1.1 14 15.2 SSW 9 15 5 8 1010.1 1010.0 0.0
24/12:30pm 31.9 28.2 0.1 13 15.4 S 9 15 5 8 1010.6 1010.5 0.0
24/12:00pm 31.2 27.4 -0.5 13 15.1 SSE 9 15 5 8 1011.0 1010.9 0.0
24/11:30am 30.8 26.6 -0.8 13 15.0 SSE 11 19 6 10 1011.6 1011.5 0.0
24/11:00am 29.6 24.9 -1.7 13 14.5 SSE 13 19 7 10 1012.1 1012.0 0.0
24/10:30am 29.0 24.0 -1.2 14 14.0 SSE 15 24 8 13 1012.4 1012.3 0.0
24/10:00am 28.0 23.4 -1.0 15 13.4 SSE 13 22 7 12 1012.6 1012.5 0.0
24/09:30am 25.9 23.3 6.0 28 10.3 S 9 17 5 9 1012.4 1012.3 0.0
24/09:00am 23.4 21.8 10.1 43 7.3 S 9 11 5 6 1012.3 1012.2 0.0
24/08:30am 21.2 20.7 12.6 58 4.9 S 7 11 4 6 1012.1 1012.0 0.0
24/08:00am 17.8 18.2 15.4 86 1.4 SSE 7 11 4 6 1011.9 1011.8 0.0
24/07:30am 14.5 14.7 12.9 90 0.9 S 4 9 2 5 1011.7 1011.6 0.0
24/07:00am 14.2 13.8 12.4 89 1.0 SSW 6 9 3 5 1011.6 1011.5 0.0
24/06:30am 14.6 15.1 12.8 89 1.0 SSW 2 7 1 4 1011.2 1011.1 0.0
24/06:00am 15.0 16.0 13.2 89 1.0 CALM 0 0 0 0 1010.9 1010.8 0.0
24/05:30am 15.2 15.4 13.2 88 1.1 S 4 7 2 4 1010.7 1010.6 0.0
24/05:00am 15.3 16.3 13.2 87 1.2 CALM 0 0 0 0 1010.4 1010.3 0.0
24/04:30am 16.0 17.2 13.7 86 1.3 CALM 0 0 0 0 1010.3 1010.2 0.0
24/04:00am 16.5 17.9 14.3 87 1.3 CALM 0 0 0 0 1010.2 1010.1 0.0
24/03:30am 16.3 17.5 13.8 85 1.4 CALM 0 0 0 0 1009.8 1009.7 0.0
24/03:00am 17.2 18.6 14.5 84 1.6 CALM 0 4 0 2 1009.7 1009.6 0.0
24/02:30am 17.7 19.3 14.8 83 1.7 CALM 0 0 0 0 1009.7 1009.6 0.0
24/02:00am 17.7 19.0 14.0 79 2.1 CALM 0 0 0 0 1009.7 1009.6 0.0
24/01:30am 18.6 20.0 14.3 76 2.5 CALM 0 0 0 0 1009.6 1009.5 0.0
24/01:00am 19.5 20.9 14.5 73 2.9 CALM 0 0 0 0 1009.7 1009.6 0.0
24/12:30am 20.5 21.7 14.8 70 3.3 SSE 2 6 1 3 1009.7 1009.6 0.0
24/12:00am 20.6 21.5 15.2 71 3.2 NE 4 7 2 4 1009.6 1009.5 0.0
 
Date/Time
CST
Temp
°C
App
Temp
°C
Dew
Point
°C
Rel
Hum
%
Delta-T
°C
Wind Press
QNH
hPa
Press
MSL
hPa
Rain since
9am
mm
Dir  Spd
km/h
Gust
km/h
Spd
kts
Gust
kts
23/11:30pm 21.5 22.0 15.1 67 3.8 NNW 6 9 3 5 1009.6 1009.5 0.0
23/11:00pm 20.7 21.2 15.0 70 3.4 NE 6 7 3 4 1009.6 1009.5 0.0
23/10:30pm 21.5 22.5 15.3 68 3.7 NE 4 7 2 4 1009.4 1009.3 0.0
23/10:00pm 22.9 24.7 15.5 63 4.4 CALM 0 0 0 0 1009.3 1009.2 0.0
23/09:30pm 24.3 24.9 15.2 57 5.5 NNW 6 9 3 5 1009.1 1009.0 0.0
23/09:00pm 25.5 25.6 15.5 54 6.1 NW 9 19 5 10 1008.8 1008.7 0.0
23/08:30pm 25.9 24.9 14.7 50 6.7 NW 13 20 7 11 1008.7 1008.6 0.0
23/08:00pm 26.6 25.3 13.7 45 7.6 NW 13 19 7 10 1008.3 1008.2 0.0
23/07:30pm 27.8 26.4 10.9 35 9.6 WNW 9 15 5 8 1007.9 1007.8 0.0
23/07:00pm 28.2 26.5 9.9 32 10.2 WNW 9 19 5 10 1007.6 1007.5 0.0
23/06:30pm 29.6 27.0 9.2 28 11.4 W 13 22 7 12 1007.2 1007.1 0.0
23/06:00pm 30.5 27.6 8.3 25 12.2 WNW 13 19 7 10 1007.1 1007.0 0.0
23/05:30pm 31.1 28.1 7.5 23 12.9 WNW 13 20 7 11 1006.8 1006.7 0.0
23/05:00pm 31.4 27.4 6.5 21 13.4 WNW 17 32 9 17 1006.9 1006.8 0.0
23/04:30pm 31.8 27.7 6.1 20 13.8 WNW 17 33 9 18 1006.8 1006.7 0.0
23/04:00pm 32.4 28.4 6.6 20 14.0 WNW 17 26 9 14 1006.9 1006.8 0.0
23/03:30pm 31.7 26.8 5.3 19 14.0 WNW 20 32 11 17 1007.2 1007.1 0.0
23/03:00pm 33.0 28.8 5.5 18 14.7 WNW 17 30 9 16 1007.2 1007.1 0.0
23/02:30pm 33.0 29.1 5.5 18 14.7 WNW 15 26 8 14 1007.6 1007.5 0.0
23/02:00pm 32.2 28.2 4.9 18 14.4 WNW 15 28 8 15 1008.0 1007.9 0.0
23/01:30pm 32.4 29.0 5.8 19 14.3 WNW 13 24 7 13 1008.3 1008.2 0.0
23/01:00pm 31.9 28.6 4.6 18 14.3 WSW 11 19 6 10 1008.8 1008.7 0.0
23/12:30pm 30.9 27.7 5.3 20 13.5 W 11 19 6 10 1009.4 1009.3 0.0
23/12:00pm 31.1 29.0 9.9 27 12.0 W 11 19 6 10 1009.8 1009.7 0.0
23/11:30am 29.3 27.5 9.4 29 11.1 SSW 9 17 5 9 1010.5 1010.4 0.0
23/11:00am 29.1 27.3 10.7 32 10.5 SSW 11 15 6 8 1010.9 1010.8 0.0
23/10:30am 27.9 27.2 13.1 40 8.7 S 9 15 5 8 1011.2 1011.1 0.4
23/10:00am 26.5 26.5 14.3 47 7.3 S 7 11 4 6 1011.3 1011.2 0.4
23/09:30am 24.7 25.5 15.9 58 5.4 SSW 6 9 3 5 1011.4 1011.3 0.4
23/09:00am 23.3 25.0 18.0 72 3.3 S 6 9 3 5 1011.3 1011.2 0.4
23/08:30am 21.1 24.6 19.6 91 1.0 CALM 0 0 0 0 1011.1 1011.0 0.4
23/08:00am 19.0 21.7 17.7 92 0.8 CALM 0 0 0 0 1010.7 1010.6 0.4
23/07:30am 16.4 18.0 14.9 91 0.9 CALM 0 0 0 0 1010.5 1010.4 0.4
23/07:00am 16.8 18.5 15.3 91 0.9 CALM 0 0 0 0 1010.1 1010.0 0.4
23/06:30am 17.0 18.1 15.5 91 0.9 NNW 4 9 2 5 1009.8 1009.7 0.4
23/06:00am 17.3 19.1 15.6 90 1.0 CALM 0 0 0 0 1009.5 1009.4 0.4
23/05:30am 17.5 19.4 15.8 90 1.0 CALM 0 0 0 0 1009.4 1009.3 0.4
23/05:00am 18.4 20.8 16.9 91 0.9 CALM 0 0 0 0 1009.3 1009.2 0.4
23/04:30am 18.4 20.7 16.7 90 1.0 CALM 0 0 0 0 1009.0 1008.9 0.4
23/04:00am 18.7 21.1 16.9 89 1.1 CALM 0 0 0 0 1009.1 1009.0 0.4
23/03:30am 19.1 21.6 17.2 89 1.2 CALM 0 0 0 0 1009.2 1009.1 0.4
23/03:00am 19.6 22.3 17.7 89 1.2 CALM 0 0 0 0 1009.3 1009.2 0.4
23/02:30am 19.8 22.5 17.8 88 1.2 CALM 0 0 0 0 1009.4 1009.3 0.4
23/02:00am 20.1 23.0 18.1 88 1.2 CALM 0 0 0 0 1009.5 1009.4 0.4
23/01:30am 20.4 23.3 18.2 87 1.4 CALM 0 0 0 0 1009.6 1009.5 0.4
23/01:00am 20.3 23.1 17.9 86 1.5 CALM 0 0 0 0 1009.7 1009.6 0.4
23/12:30am 20.8 23.7 18.2 85 1.6 CALM 0 0 0 0 1009.8 1009.7 0.4
23/12:00am 21.1 24.0 18.3 84 1.7 CALM 0 0 0 0 1009.7 1009.6 0.4
 
Date/Time
CST
Temp
°C
App
Temp
°C
Dew
Point
°C
Rel
Hum
%
Delta-T
°C
Wind Press
QNH
hPa
Press
MSL
hPa
Rain since
9am
mm
Dir  Spd
km/h
Gust
km/h
Spd
kts
Gust
kts
22/11:30pm 21.4 24.3 18.2 82 2.0 CALM 0 0 0 0 1009.6 1009.5 0.4
22/11:00pm 22.4 24.5 19.0 81 2.2 NNW 6 7 3 4 1009.7 1009.6 0.4
22/10:30pm 22.5 25.6 18.7 79 2.4 CALM 0 0 0 0 1009.8 1009.7 0.4
22/10:00pm 23.0 25.0 17.9 73 3.2 NW 4 7 2 4 1009.8 1009.7 0.4
22/09:30pm 24.3 26.4 18.2 68 3.8 NNW 4 7 2 4 1009.7 1009.6 0.4
22/09:00pm 25.1 26.3 18.3 66 4.3 NW 9 13 5 7 1009.6 1009.5 0.4
22/08:30pm 25.6 26.6 17.8 62 4.9 NW 9 11 5 6 1009.1 1009.0 0.4
22/08:00pm 26.1 26.4 16.9 57 5.7 NW 11 17 6 9 1008.7 1008.6 0.4
22/07:30pm 26.5 26.3 16.7 55 6.1 NW 13 19 7 10 1008.2 1008.1 0.4
22/07:00pm 27.3 27.6 16.9 53 6.5 WNW 11 17 6 9 1007.8 1007.7 0.4
22/06:30pm 28.4 27.6 17.0 50 7.2 WNW 17 24 9 13 1007.5 1007.4 0.4
22/06:00pm 28.6 27.2 15.5 45 8.0 NW 17 24 9 13 1007.1 1007.0 0.4
22/05:30pm 29.8 28.4 16.9 45 8.1 NW 20 32 11 17 1007.0 1006.9 0.4
22/05:00pm 30.4 29.9 16.8 44 8.6 WNW 15 22 8 12 1006.9 1006.8 0.4
22/04:30pm 30.7 30.4 17.4 45 8.5 WNW 15 24 8 13 1006.9 1006.8 0.4
22/04:00pm 29.2 28.4 17.1 48 7.6 NNW 17 24 9 13 1007.2 1007.1 0.4
22/03:30pm 30.3 29.5 16.0 42 8.9 NW 15 20 8 11 1007.2 1007.1 0.4
22/03:00pm 30.4 30.8 16.4 43 8.8 NW 9 15 5 8 1007.7 1007.6 0.4
22/02:30pm 29.6 32.1 20.2 57 6.2 W 7 11 4 6 1008.1 1008.0 0.4
22/02:00pm 26.1 29.0 20.7 72 3.5 SSW 6 9 3 5 1008.5 1008.4 0.4
22/01:30pm 26.0 27.5 18.9 65 4.6 SSW 9 17 5 9 1009.1 1009.0 0.2
22/01:00pm 29.1 28.5 18.8 53 6.6 N 20 32 11 17 1009.2 1009.1 0.2
22/12:30pm 27.1 27.3 20.2 66 4.5 NNW 19 28 10 15 1009.6 1009.5 0.0
22/12:00pm 30.7 30.2 17.7 45 8.3 NNW 17 28 9 15 1009.8 1009.7 0.0
22/11:30am 30.0 30.0 18.1 49 7.6 NNW 15 22 8 12 1010.3 1010.2 0.0
22/11:00am 30.5 30.1 18.9 50 7.5 N 19 26 10 14 1010.6 1010.5 0.0
22/10:30am 29.5 29.7 18.6 52 7.0 NNW 15 24 8 13 1010.9 1010.8 0.0
22/10:00am 28.7 29.7 20.2 60 5.6 NW 15 24 8 13 1011.0 1010.9 0.0
22/09:30am 27.2 30.0 20.8 68 4.2 WNW 7 11 4 6 1011.0 1010.9 0.0
22/09:00am 25.5 28.9 21.0 76 3.0 S 4 7 2 4 1010.7 1010.6 0.0
22/08:30am 24.0 28.4 21.3 85 1.8 CALM 0 0 0 0 1010.4 1010.3 0.0
22/08:00am 21.2 24.8 19.7 91 1.0 CALM 0 0 0 0 1010.1 1010.0 0.0
22/07:30am 20.1 23.1 18.4 90 1.1 CALM 0 0 0 0 1009.9 1009.8 0.0
22/07:00am 19.8 22.6 17.9 89 1.2 CALM 0 0 0 0 1009.7 1009.6 0.0
22/06:30am 20.3 22.6 18.6 90 1.1 S 4 7 2 4 1009.5 1009.4 0.0
22/06:00am 20.5 23.7 18.8 90 1.1 CALM 0 0 0 0 1009.4 1009.3 0.0
22/05:30am 20.1 23.0 18.2 89 1.2 CALM 0 0 0 0 1009.2 1009.1 0.0
22/05:00am 20.3 23.2 18.2 88 1.3 CALM 0 0 0 0 1009.1 1009.0 0.0
22/04:30am 21.1 24.4 19.2 89 1.2 CALM 0 0 0 0 1009.2 1009.1 0.0
22/04:00am 21.5 24.9 19.4 88 1.3 CALM 0 0 0 0 1009.3 1009.2 0.0
22/03:30am 22.3 25.4 20.2 88 1.4 SW 4 7 2 4 1009.5 1009.4 0.0
22/03:00am 22.7 25.5 20.8 89 1.2 SSW 7 9 4 5 1009.7 1009.6 0.0
22/02:30am 22.3 26.2 20.4 89 1.2 CALM 0 0 0 0 1010.0 1009.9 0.0
22/02:00am 22.1 25.7 19.8 87 1.5 CALM 0 0 0 0 1010.2 1010.1 0.0
22/01:30am 22.5 26.2 20.0 86 1.6 CALM 0 0 0 0 1010.6 1010.5 0.0
22/01:00am 22.9 26.3 20.2 85 1.7 NNE 2 6 1 3 1010.9 1010.8 0.0
22/12:30am 23.1 25.6 19.9 82 2.1 N 6 7 3 4 1011.1 1011.0 0.0
22/12:00am 23.8 26.4 20.1 80 2.4 NNW 6 9 3 5 1011.2 1011.1 0.0
 
Date/Time
CST
Temp
°C
App
Temp
°C
Dew
Point
°C
Rel
Hum
%
Delta-T
°C
Wind Press
QNH
hPa
Press
MSL
hPa
Rain since
9am
mm
Dir  Spd
km/h
Gust
km/h
Spd
kts
Gust
kts
21/11:30pm 23.9 26.2 19.4 76 2.9 NNW 6 7 3 4 1011.3 1011.2 0.0
21/11:00pm 25.1 27.6 19.9 73 3.4 NNW 6 7 3 4 1011.2 1011.1 0.0
21/10:30pm 25.5 27.8 19.9 71 3.6 NNW 7 11 4 6 1011.0 1010.9 0.0
21/10:00pm 25.7 27.6 19.8 70 3.8 N 9 13 5 7 1010.7 1010.6 0.0
21/09:30pm 26.2 27.7 19.8 68 4.2 NNW 11 15 6 8 1010.6 1010.5 0.0
21/09:00pm 26.6 27.4 19.0 63 4.9 NNW 13 19 7 10 1010.4 1010.3 0.0
21/08:30pm 26.9 27.2 17.9 57 5.7 N 13 19 7 10 1010.1 1010.0 0.0
21/08:00pm 27.1 26.9 17.6 56 6.0 N 15 19 8 10 1009.8 1009.7 0.0

Other Formats:

Comma delimited format used in spreadsheet applications
http://www.bom.gov.au/fwo/IDD60801/IDD60801.94100.axf

JavaScript Object Notation format (JSON) in row-major order
http://www.bom.gov.au/fwo/IDD60801/IDD60801.94100.json